Time;durP1;ratioP1;P1;durP2;ratioP2;P2;SDS_P1;SDS_P2;PMS_P1;PMS_P2;Temp;Humidity;BMP_temperature;BMP_pressure;BME280_temperature;BME280_humidity;BME280_pressure;Samples;Min_cycle;Max_cycle;Signal;HPM_P1;HPM_P2
2022/01/01 00:00:33;;;;;;;60.42;24.77;;;;;;;;;;5053027;28;20048;-81
2022/01/01 00:03:00;;;;;;;33.00;13.05;;;;;;;;;;5053938;28;20090;-81
2022/01/01 00:05:26;;;;;;;39.78;14.27;;;;;;;;;;5051611;28;20080;-81
2022/01/01 00:07:53;;;;;;;33.03;11.90;;;;;;;;;;5050233;28;20037;-80
2022/01/01 00:10:20;;;;;;;26.35;11.02;;;;;;;;;;5055739;28;20031;-80
2022/01/01 00:12:47;;;;;;;36.72;11.13;;;;;;;;;;5040774;28;20415;-80
2022/01/01 00:15:13;;;;;;;32.17;9.27;;;;;;;;;;5050399;28;20464;-80
2022/01/01 00:17:40;;;;;;;26.75;8.55;;;;;;;;;;5057193;28;20048;-80
2022/01/01 00:20:09;;;;;;;31.25;10.88;;;10.30;99.90;;;;;;5053377;28;20049;-80
2022/01/01 00:22:35;;;;;;;31.77;10.65;;;;;;;;;;5051044;28;20045;-79
2022/01/01 00:25:02;;;;;;;32.83;8.82;;;;;;;;;;5054586;28;20083;-79
2022/01/01 00:27:28;;;;;;;20.33;5.22;;;;;;;;;;5047490;28;20663;-79
2022/01/01 00:29:56;;;;;;;26.58;6.65;;;9.90;99.90;;;;;;5055346;28;20511;-79
2022/01/01 00:32:22;;;;;;;21.20;6.18;;;;;;;;;;5056194;28;20052;-79
2022/01/01 00:34:50;;;;;;;25.83;6.45;;;;;;;;;;5053495;28;20046;-79
2022/01/01 00:37:16;;;;;;;34.25;7.45;;;;;;;;;;5054893;28;20052;-78
2022/01/01 00:39:43;;;;;;;37.10;7.90;;;;;;;;;;5056252;28;20170;-79
2022/01/01 00:42:09;;;;;;;33.33;7.38;;;;;;;;;;5056516;28;20578;-79
2022/01/01 00:44:35;;;;;;;44.35;9.75;;;;;;;;;;5037449;28;20043;-79
2022/01/01 00:47:02;;;;;;;40.53;8.88;;;;;;;;;;5037396;28;20268;-79
2022/01/01 00:49:28;;;;;;;30.00;7.13;;;;;;;;;;5049602;28;20551;-79
2022/01/01 00:51:54;;;;;;;31.90;8.07;;;;;;;;;;5055861;28;20040;-80
2022/01/01 00:54:21;;;;;;;25.77;6.97;;;;;;;;;;5054729;28;20114;-80
2022/01/01 00:56:47;;;;;;;38.05;8.88;;;;;;;;;;5055985;28;20040;-81
2022/01/01 00:59:15;;;;;;;23.45;5.32;;;;;;;;;;5052734;28;20083;-80
2022/01/01 01:01:41;;;;;;;15.25;4.03;;;;;;;;;;5042585;28;20469;-80
2022/01/01 01:04:07;;;;;;;24.55;6.38;;;;;;;;;;5038173;28;20048;-80
2022/01/01 01:06:34;;;;;;;18.80;7.13;;;;;;;;;;5041727;28;20052;-80
2022/01/01 01:09:00;;;;;;;49.72;13.13;;;;;;;;;;5057209;28;20036;-80
2022/01/01 01:11:28;;;;;;;39.38;6.88;;;;;;;;;;5043186;28;20399;-80
2022/01/01 01:13:59;;;;;;;31.13;10.27;;;;;;;;;;5049945;28;20114;-80
2022/01/01 01:16:26;;;;;;;37.50;8.45;;;;;;;;;;5043569;28;20090;-80
2022/01/01 01:18:54;;;;;;;44.03;14.10;;;;;;;;;;5058194;28;20044;-80
2022/01/01 01:21:24;;;;;;;32.15;9.65;;;;;;;;;;5043232;28;20040;-80
2022/01/01 01:23:51;;;;;;;48.85;11.77;;;;;;;;;;5042219;28;20126;-80
2022/01/01 01:26:17;;;;;;;36.17;11.73;;;;;;;;;;5056111;28;20089;-80
2022/01/01 01:28:51;;;;;;;32.67;11.30;;;;;;;;;;5037078;28;20357;-79
2022/01/01 01:31:18;;;;;;;37.40;15.10;;;;;;;;;;5054488;28;20041;-80
2022/01/01 01:33:44;;;;;;;59.30;18.25;;;8.90;99.90;;;;;;5043322;28;20143;-80
2022/01/01 01:36:13;;;;;;;55.17;18.20;;;8.90;99.90;;;;;;5049540;28;20091;-79
2022/01/01 01:38:40;;;;;;;33.70;9.23;;;;;;;;;;5038848;28;20037;-80
2022/01/01 01:41:06;;;;;;;30.85;9.85;;;;;;;;;;5059358;28;20044;-79
2022/01/01 01:43:33;;;;;;;47.97;14.00;;;;;;;;;;5043105;28;20075;-80
2022/01/01 01:46:04;;;;;;;40.25;11.68;;;;;;;;;;5035550;28;20480;-80
2022/01/01 01:48:31;;;;;;;35.75;10.38;;;;;;;;;;5058065;28;20047;-80
2022/01/01 01:50:58;;;;;;;50.95;11.75;;;;;;;;;;5058490;28;20040;-80
2022/01/01 01:53:24;;;;;;;21.88;6.25;;;;;;;;;;5053674;28;20063;-80
2022/01/01 01:55:50;;;;;;;33.50;9.68;;;;;;;;;;5058260;28;20106;-80
2022/01/01 01:58:17;;;;;;;52.67;11.35;;;;;;;;;;5056891;28;20051;-79
2022/01/01 02:03:28;;;;;;;35.47;6.67;;;;;;;;;;5058113;28;20062;-79
2022/01/01 02:05:54;;;;;;;31.58;7.93;;;;;;;;;;5058208;28;20293;-82
2022/01/01 02:08:20;;;;;;;31.55;6.85;;;;;;;;;;5059207;28;20563;-80
2022/01/01 02:10:51;;;;;;;32.95;8.57;;;;;;;;;;5056609;28;20480;-79
2022/01/01 02:13:32;;;;;;;44.13;9.93;;;;;;;;;;5042458;28;20462;-80
2022/01/01 02:16:15;;;;;;;38.75;9.43;;;;;;;;;;5033580;28;20491;-79
2022/01/01 02:18:43;;;;;;;39.22;8.00;;;;;;;;;;5054976;28;20445;-79
2022/01/01 02:21:09;;;;;;;30.20;8.45;;;;;;;;;;5051872;28;20071;-79
2022/01/01 02:23:39;;;;;;;41.38;9.60;;;8.60;99.90;;;;;;5059359;28;20048;-79
2022/01/01 02:26:09;;;;;;;42.55;11.75;;;;;;;;;;5056603;28;20061;-79
2022/01/01 02:28:35;;;;;;;37.75;9.10;;;;;;;;;;5053422;28;20048;-79
2022/01/01 02:31:02;;;;;;;44.15;11.98;;;;;;;;;;5055949;28;20123;-79
2022/01/01 02:33:28;;;;;;;49.10;13.88;;;;;;;;;;5050767;28;20123;-80
2022/01/01 02:35:55;;;;;;;18.48;6.53;;;;;;;;;;5049675;28;20123;-79
2022/01/01 02:38:21;;;;;;;53.22;12.55;;;;;;;;;;5055924;28;20646;-79
2022/01/01 02:40:47;;;;;;;20.38;6.90;;;;;;;;;;5052483;28;20040;-82
2022/01/01 02:43:14;;;;;;;28.25;7.53;;;;;;;;;;5040303;28;20136;-79
2022/01/01 02:45:40;;;;;;;35.42;8.75;;;;;;;;;;5041576;28;20547;-79
2022/01/01 02:48:06;;;;;;;49.90;11.73;;;;;;;;;;5054611;28;20040;-79
2022/01/01 02:50:32;;;;;;;51.60;12.80;;;;;;;;;;5045610;28;20408;-79
2022/01/01 02:52:58;;;;;;;29.67;6.97;;;;;;;;;;5056946;28;20613;-79
2022/01/01 02:55:25;;;;;;;35.15;7.78;;;;;;;;;;5037591;28;20080;-81
2022/01/01 02:57:51;;;;;;;41.55;9.45;;;;;;;;;;5042745;28;20051;-79
2022/01/01 03:00:17;;;;;;;43.47;8.82;;;;;;;;;;5035064;28;20041;-80
2022/01/01 03:02:45;;;;;;;33.47;8.57;;;;;;;;;;5049926;28;20052;-80
2022/01/01 03:05:11;;;;;;;18.77;6.13;;;;;;;;;;5055981;28;20044;-79
2022/01/01 03:07:38;;;;;;;36.83;9.05;;;;;;;;;;5055711;28;20563;-79
2022/01/01 03:10:05;;;;;;;20.75;5.95;;;;;;;;;;5039147;28;20037;-79
2022/01/01 03:12:31;;;;;;;33.70;10.15;;;;;;;;;;5055240;28;20087;-79
2022/01/01 03:14:57;;;;;;;23.38;7.20;;;;;;;;;;5058931;28;20048;-80
2022/01/01 03:17:24;;;;;;;44.25;11.43;;;;;;;;;;5041329;28;20556;-79
2022/01/01 03:19:50;;;;;;;45.58;9.95;;;;;;;;;;5058066;28;20036;-80
2022/01/01 03:22:16;;;;;;;39.53;9.95;;;;;;;;;;5033878;28;20044;-80
2022/01/01 03:24:42;;;;;;;33.33;8.15;;;;;;;;;;5051082;28;20560;-79
2022/01/01 03:27:08;;;;;;;35.33;8.68;;;;;;;;;;5037168;28;20139;-79
2022/01/01 03:29:35;;;;;;;23.33;6.13;;;;;;;;;;5052236;28;20052;-80
2022/01/01 03:32:01;;;;;;;45.08;10.23;;;;;;;;;;5055618;28;20048;-80
2022/01/01 03:34:27;;;;;;;51.55;12.00;;;;;;;;;;5052863;28;20037;-80
2022/01/01 03:36:53;;;;;;;69.65;16.20;;;;;;;;;;5052876;28;20043;-79
2022/01/01 03:39:22;;;;;;;43.58;10.38;;;;;;;;;;5053193;28;20040;-79
2022/01/01 03:41:49;;;;;;;46.60;10.90;;;;;;;;;;5039474;28;20036;-80
2022/01/01 03:44:15;;;;;;;27.02;7.78;;;;;;;;;;5056554;28;20777;-79
2022/01/01 03:46:41;;;;;;;24.83;6.60;;;;;;;;;;5053998;28;20464;-79
2022/01/01 03:49:07;;;;;;;19.58;3.58;;;;;;;;;;5056515;28;20522;-79
2022/01/01 03:51:33;;;;;;;34.97;7.13;;;8.70;99.90;;;;;;5056654;28;20044;-79
2022/01/01 03:54:00;;;;;;;44.50;9.07;;;;;;;;;;5054888;28;20118;-80
2022/01/01 03:56:26;;;;;;;28.88;6.47;;;;;;;;;;5050153;28;20044;-79
2022/01/01 03:58:52;;;;;;;28.35;6.38;;;;;;;;;;5044460;28;20049;-80
2022/01/01 04:01:18;;;;;;;35.88;7.18;;;;;;;;;;5055252;28;20518;-81
2022/01/01 04:03:44;;;;;;;27.25;6.20;;;;;;;;;;5033665;28;20123;-81
2022/01/01 04:06:10;;;;;;;22.25;6.05;;;;;;;;;;5036737;28;20041;-81
2022/01/01 04:08:36;;;;;;;18.42;5.55;;;;;;;;;;5057661;28;20040;-81
2022/01/01 04:11:03;;;;;;;33.83;7.13;;;;;;;;;;5038637;28;20037;-81
2022/01/01 04:13:29;;;;;;;28.92;7.15;;;9.40;99.90;;;;;;5043977;28;20044;-81
2022/01/01 04:15:56;;;;;;;29.27;7.65;;;;;;;;;;5041495;28;20123;-81
2022/01/01 04:18:40;;;;;;;28.30;9.35;;;;;;;;;;5057163;28;20047;-81
2022/01/01 04:21:07;;;;;;;33.80;9.20;;;;;;;;;;5050986;28;20504;-80
2022/01/01 04:23:34;;;;;;;22.90;7.00;;;;;;;;;;5054631;28;20044;-80
2022/01/01 04:26:00;;;;;;;49.45;10.25;;;;;;;;;;5038491;28;20499;-80
2022/01/01 04:28:26;;;;;;;19.45;4.88;;;;;;;;;;5044134;28;20079;-80
2022/01/01 04:30:52;;;;;;;33.05;7.60;;;;;;;;;;5035510;28;20051;-81
2022/01/01 04:33:18;;;;;;;26.60;7.88;;;;;;;;;;5060001;28;20111;-80
2022/01/01 04:35:44;;;;;;;32.60;8.55;;;;;;;;;;5044504;28;20987;-80
2022/01/01 04:38:25;;;;;;;23.45;8.05;;;;;;;;;;5055977;28;20377;-79
2022/01/01 04:40:51;;;;;;;46.92;13.32;;;;;;;;;;5043075;28;20396;-80
2022/01/01 04:43:18;;;;;;;30.52;8.35;;;;;;;;;;5054582;28;20037;-79
2022/01/01 04:45:44;;;;;;;34.33;12.00;;;;;;;;;;5044862;28;20033;-80
2022/01/01 04:48:10;;;;;;;38.85;11.68;;;;;;;;;;5061789;28;20059;-80
2022/01/01 04:50:36;;;;;;;34.53;11.35;;;;;;;;;;5043435;28;20036;-80
2022/01/01 04:53:02;;;;;;;26.42;9.43;;;;;;;;;;5038325;28;20538;-80
2022/01/01 04:55:29;;;;;;;34.95;10.25;;;;;;;;;;5054580;28;20049;-80
2022/01/01 04:57:55;;;;;;;41.67;11.63;;;;;;;;;;5064652;28;20056;-79
2022/01/01 05:00:21;;;;;;;33.58;10.73;;;;;;;;;;5043410;28;20134;-80
2022/01/01 05:02:47;;;;;;;31.27;10.07;;;;;;;;;;5062114;28;20036;-80
2022/01/01 05:05:13;;;;;;;29.75;8.48;;;;;;;;;;5059527;28;20787;-80
2022/01/01 05:07:39;;;;;;;48.60;13.88;;;;;;;;;;5063856;28;20069;-80
2022/01/01 05:10:06;;;;;;;33.83;10.30;;;;;;;;;;5053472;28;20150;-80
2022/01/01 05:12:32;;;;;;;45.78;11.98;;;;;;;;;;5041636;28;20041;-80
2022/01/01 05:14:58;;;;;;;57.38;16.42;;;;;;;;;;5059112;28;20089;-79
2022/01/01 05:17:24;;;;;;;51.35;15.23;;;;;;;;;;5050757;28;20060;-80
2022/01/01 05:19:51;;;;;;;23.77;8.32;;;;;;;;;;5037728;28;20496;-79
2022/01/01 05:22:17;;;;;;;37.67;11.57;;;;;;;;;;5044830;28;20159;-79
2022/01/01 05:24:43;;;;;;;20.48;7.20;;;;;;;;;;5060525;28;20049;-80
2022/01/01 05:27:09;;;;;;;43.80;12.02;;;;;;;;;;5052522;28;20048;-80
2022/01/01 05:29:35;;;;;;;24.95;8.85;;;;;;;;;;5059804;28;20060;-79
2022/01/01 05:32:01;;;;;;;31.73;11.30;;;;;;;;;;5044654;28;20115;-79
2022/01/01 05:34:27;;;;;;;53.83;15.05;;;;;;;;;;5058955;28;20054;-79
2022/01/01 05:36:54;;;;;;;33.20;10.52;;;;;;;;;;5056354;28;20040;-79
2022/01/01 05:39:20;;;;;;;57.88;17.95;;;;;;;;;;5043862;28;20148;-79
2022/01/01 05:41:46;;;;;;;35.45;10.35;;;;;;;;;;5051578;28;20052;-79
2022/01/01 05:44:12;;;;;;;31.85;10.45;;;;;;;;;;5039687;28;20238;-79
2022/01/01 05:46:38;;;;;;;36.55;9.32;;;;;;;;;;5055983;28;20041;-78
2022/01/01 05:49:05;;;;;;;41.33;13.98;;;;;;;;;;5057467;28;20145;-78
2022/01/01 05:51:31;;;;;;;35.92;11.20;;;;;;;;;;5041064;28;20036;-79
2022/01/01 05:53:57;;;;;;;33.38;9.68;;;;;;;;;;5058586;28;20043;-79
2022/01/01 05:56:23;;;;;;;50.00;15.38;;;;;;;;;;5055216;28;20070;-79
2022/01/01 05:58:49;;;;;;;29.23;9.95;;;;;;;;;;5057168;28;20037;-79
2022/01/01 06:01:16;;;;;;;28.33;10.52;;;;;;;;;;5052129;28;20530;-82
2022/01/01 06:03:42;;;;;;;47.88;13.45;;;;;;;;;;5058505;28;20041;-80
2022/01/01 06:06:08;;;;;;;25.20;8.25;;;;;;;;;;5040343;28;20621;-80
2022/01/01 06:08:34;;;;;;;39.80;11.18;;;;;;;;;;5060094;28;20042;-80
2022/01/01 06:11:01;;;;;;;37.35;10.70;;;;;;;;;;5059198;28;20047;-79
2022/01/01 06:13:28;;;;;;;17.58;7.35;;;;;;;;;;5058077;28;20611;-79
2022/01/01 06:15:54;;;;;;;17.90;5.30;;;;;;;;;;5057345;28;20169;-79
2022/01/01 06:18:21;;;;;;;19.20;6.45;;;;;;;;;;5041685;28;20079;-79
2022/01/01 06:20:47;;;;;;;18.30;4.28;;;;;;;;;;5042745;28;20048;-79
2022/01/01 06:23:13;;;;;;;24.05;7.95;;;;;;;;;;5052109;28;20045;-79
2022/01/01 06:25:40;;;;;;;16.48;6.88;;;;;;;;;;5056448;28;20403;-80
2022/01/01 06:28:07;;;;;;;28.60;10.40;;;;;;;;;;5034393;28;20139;-78
2022/01/01 06:30:35;;;;;;;10.40;4.55;;;;;;;;;;5057494;28;20068;-79
2022/01/01 06:33:03;;;;;;;21.92;6.85;;;;;;;;;;5054395;28;20090;-80
2022/01/01 06:35:29;;;;;;;13.25;4.03;;;;;;;;;;5056233;28;20788;-79
2022/01/01 06:37:55;;;;;;;27.35;9.13;;;;;;;;;;5057258;28;20097;-80
2022/01/01 06:40:21;;;;;;;16.38;5.60;;;10.30;99.90;;;;;;5057351;28;20093;-79
2022/01/01 06:42:48;;;;;;;12.95;4.45;;;;;;;;;;5039784;28;20079;-79
2022/01/01 06:45:14;;;;;;;14.50;4.70;;;;;;;;;;5041691;28;20036;-79
2022/01/01 06:47:40;;;;;;;24.48;6.68;;;;;;;;;;5051307;28;20036;-80
2022/01/01 06:50:07;;;;;;;18.88;6.15;;;8.20;99.90;;;;;;5053269;28;20044;-79
2022/01/01 06:52:33;;;;;;;14.57;5.25;;;;;;;;;;5055983;28;20055;-80
2022/01/01 06:55:00;;;;;;;16.33;5.72;;;;;;;;;;5054044;28;20048;-80
2022/01/01 06:57:26;;;;;;;16.83;6.53;;;;;;;;;;5041128;28;20385;-80
2022/01/01 06:59:52;;;;;;;15.85;7.15;;;;;;;;;;5041699;28;20052;-80
2022/01/01 07:02:18;;;;;;;15.43;6.53;;;;;;;;;;5038964;28;20044;-80
2022/01/01 07:04:44;;;;;;;15.93;6.18;;;;;;;;;;5057066;28;20499;-80
2022/01/01 07:07:11;;;;;;;17.40;6.07;;;;;;;;;;5057980;28;20644;-79
2022/01/01 07:09:38;;;;;;;17.92;6.13;;;;;;;;;;5041116;28;20036;-79
2022/01/01 07:12:04;;;;;;;12.52;5.22;;;;;;;;;;5051600;28;20037;-79
2022/01/01 07:14:30;;;;;;;22.70;7.53;;;;;;;;;;5055974;28;20036;-79
2022/01/01 07:16:56;;;;;;;17.88;6.88;;;;;;;;;;5041485;28;20047;-79
2022/01/01 07:19:23;;;;;;;23.98;8.27;;;10.50;99.90;;;;;;5055749;28;20044;-79
2022/01/01 07:21:49;;;;;;;26.30;7.82;;;;;;;;;;5055259;28;20892;-79
2022/01/01 07:24:15;;;;;;;35.55;10.57;;;;;;;;;;5055538;28;20044;-80
2022/01/01 07:26:41;;;;;;;24.63;8.73;;;;;;;;;;5045848;28;20060;-79
2022/01/01 07:29:07;;;;;;;25.33;9.82;;;10.20;99.90;;;;;;5057586;28;20044;-80
2022/01/01 07:31:33;;;;;;;21.15;7.88;;;;;;;;;;5040936;28;20389;-80
2022/01/01 07:34:00;;;;;;;19.98;8.68;;;;;;;;;;5054541;28;20076;-79
2022/01/01 07:36:26;;;;;;;22.02;8.75;;;;;;;;;;5053910;28;20048;-80
2022/01/01 07:38:52;;;;;;;25.13;9.35;;;;;;;;;;5048732;28;20048;-79
2022/01/01 07:41:18;;;;;;;25.70;9.70;;;;;;;;;;5050539;28;20080;-80
2022/01/01 07:43:44;;;;;;;24.40;8.85;;;;;;;;;;5056338;28;20416;-80
2022/01/01 07:46:10;;;;;;;19.70;8.85;;;;;;;;;;5056029;28;20123;-80
2022/01/01 07:48:36;;;;;;;18.98;9.35;;;;;;;;;;5040780;28;20032;-80
2022/01/01 07:51:02;;;;;;;17.23;7.68;;;10.90;99.90;;;;;;5051262;28;20118;-79
2022/01/01 07:53:28;;;;;;;31.80;12.90;;;;;;;;;;5054240;28;20048;-80
2022/01/01 07:55:54;;;;;;;19.17;7.53;;;;;;;;;;5036721;28;20049;-79
2022/01/01 07:58:21;;;;;;;21.50;9.93;;;;;;;;;;5038218;28;20048;-79
2022/01/01 08:00:47;;;;;;;19.55;9.07;;;;;;;;;;5036153;28;20044;-79
2022/01/01 08:03:13;;;;;;;32.85;14.60;;;;;;;;;;5057885;28;20095;-79
2022/01/01 08:05:39;;;;;;;30.15;13.00;;;;;;;;;;5052050;28;20032;-79
2022/01/01 08:08:06;;;;;;;23.08;9.80;;;;;;;;;;5037194;28;20552;-79
2022/01/01 08:10:32;;;;;;;31.88;12.55;;;;;;;;;;5054716;28;20117;-80
2022/01/01 08:12:58;;;;;;;21.80;9.88;;;;;;;;;;5057263;28;20372;-80
2022/01/01 08:15:25;;;;;;;30.60;10.50;;;;;;;;;;5055248;28;20048;-79
2022/01/01 08:17:51;;;;;;;32.78;15.07;;;;;;;;;;5056207;28;20802;-79
2022/01/01 08:20:17;;;;;;;20.75;9.88;;;;;;;;;;5054558;28;20056;-79
2022/01/01 08:22:43;;;;;;;29.02;13.35;;;;;;;;;;5052971;28;20144;-79
2022/01/01 08:25:09;;;;;;;25.25;11.80;;;;;;;;;;5042033;28;20052;-79
2022/01/01 08:27:35;;;;;;;30.38;11.82;;;;;;;;;;5055860;28;20419;-79
2022/01/01 08:30:01;;;;;;;16.67;8.77;;;;;;;;;;5056088;28;20467;-79
2022/01/01 08:32:28;;;;;;;29.38;11.75;;;;;;;;;;5054519;28;20036;-80
2022/01/01 08:34:54;;;;;;;25.85;10.20;;;;;;;;;;5041406;28;20730;-80
2022/01/01 08:37:20;;;;;;;27.52;11.10;;;;;;;;;;5056416;28;20044;-80
2022/01/01 08:39:47;;;;;;;26.20;11.10;;;;;;;;;;5049497;28;20041;-80
2022/01/01 08:42:13;;;;;;;22.83;9.32;;;;;;;;;;5040067;28;20073;-80
2022/01/01 08:44:39;;;;;;;31.02;11.80;;;;;;;;;;5048459;28;20102;-80
2022/01/01 08:47:05;;;;;;;23.10;10.23;;;;;;;;;;5054678;28;20526;-80
2022/01/01 08:49:32;;;;;;;22.48;10.98;;;;;;;;;;5056190;28;20109;-80
2022/01/01 08:51:58;;;;;;;23.33;10.48;;;;;;;;;;5039147;28;20089;-80
2022/01/01 08:54:24;;;;;;;16.65;8.10;;;;;;;;;;5053418;28;20041;-80
2022/01/01 08:56:51;;;;;;;16.70;8.10;;;;;;;;;;5046372;28;20606;-79
2022/01/01 08:59:17;;;;;;;19.25;9.25;;;;;;;;;;5054064;28;20598;-80
2022/01/01 09:01:43;;;;;;;18.98;8.15;;;10.60;99.90;;;;;;5034355;28;20477;-80
2022/01/01 09:04:10;;;;;;;21.23;9.60;;;;;;;;;;5052336;28;20083;-79
2022/01/01 09:06:36;;;;;;;19.58;8.23;;;;;;;;;;5048986;28;20051;-82
2022/01/01 09:09:03;;;;;;;20.88;8.38;;;;;;;;;;5049465;28;20352;-81
2022/01/01 09:11:29;;;;;;;19.50;7.40;;;;;;;;;;5054113;28;20044;-83
2022/01/01 09:13:55;;;;;;;17.73;9.85;;;;;;;;;;5056389;28;20043;-79
2022/01/01 09:16:28;;;;;;;24.77;11.38;;;;;;;;;;5054461;28;20075;-81
2022/01/01 09:18:54;;;;;;;18.42;9.02;;;;;;;;;;5050820;28;20503;-80
2022/01/01 09:21:21;;;;;;;17.70;7.72;;;;;;;;;;5057582;28;20059;-81
2022/01/01 09:23:47;;;;;;;14.85;6.60;;;;;;;;;;5041839;28;20064;-81
2022/01/01 09:26:13;;;;;;;16.75;9.70;;;;;;;;;;5052738;28;20041;-81
2022/01/01 09:28:39;;;;;;;21.23;10.05;;;;;;;;;;5050878;28;20064;-82
2022/01/01 09:31:06;;;;;;;19.38;9.95;;;;;;;;;;5059756;28;20052;-81
2022/01/01 09:33:32;;;;;;;24.83;10.82;;;;;;;;;;5057902;28;20048;-81
2022/01/01 09:36:03;;;;;;;17.67;8.88;;;;;;;;;;5043294;28;20078;-81
2022/01/01 09:38:30;;;;;;;30.40;14.48;;;;;;;;;;5053544;28;20083;-81
2022/01/01 09:40:57;;;;;;;18.88;8.65;;;;;;;;;;5058697;28;20077;-81
2022/01/01 09:43:24;;;;;;;17.80;10.10;;;;;;;;;;5055020;28;20501;-82
2022/01/01 09:45:51;;;;;;;23.85;12.40;;;;;;;;;;5056110;28;20044;-81
2022/01/01 09:48:19;;;;;;;23.70;10.60;;;;;;;;;;5057160;28;20043;-80
2022/01/01 09:50:48;;;;;;;19.10;11.38;;;;;;;;;;5055645;28;20056;-80
2022/01/01 09:53:14;;;;;;;23.40;10.75;;;;;;;;;;5054860;28;20155;-80
2022/01/01 09:55:40;;;;;;;24.75;14.32;;;10.80;99.90;;;;;;5039041;28;20138;-80
2022/01/01 09:58:06;;;;;;;20.40;12.55;;;;;;;;;;5060967;28;20050;-80
2022/01/01 10:00:33;;;;;;;24.60;12.15;;;;;;;;;;5039606;28;20530;-81
2022/01/01 10:02:59;;;;;;;26.52;12.70;;;;;;;;;;5059818;28;20093;-81
2022/01/01 10:05:25;;;;;;;26.38;10.93;;;;;;;;;;5041910;28;20147;-81
2022/01/01 10:07:51;;;;;;;24.35;12.25;;;;;;;;;;5057603;28;20174;-81
2022/01/01 10:10:22;;;;;;;19.08;9.80;;;;;;;;;;5058481;28;20052;-82
2022/01/01 10:12:48;;;;;;;21.55;11.63;;;;;;;;;;5053779;28;20041;-81
2022/01/01 10:15:15;;;;;;;18.77;8.68;;;;;;;;;;5057114;28;20041;-81
2022/01/01 10:17:41;;;;;;;19.65;8.50;;;;;;;;;;5057852;28;20139;-81
2022/01/01 10:20:08;;;;;;;18.67;9.05;;;;;;;;;;5059295;28;20364;-81
2022/01/01 10:22:35;;;;;;;17.42;9.95;;;;;;;;;;5058256;28;20191;-81
2022/01/01 10:27:59;;;;;;;20.90;10.80;;;10.80;99.90;;;;;;5053366;28;20056;-81
2022/01/01 10:30:26;;;;;;;14.48;5.97;;;;;;;;;;5056652;28;20531;-82
2022/01/01 10:33:12;;;;;;;16.50;6.10;;;;;;;;;;5059055;28;20044;-82
2022/01/01 10:35:49;;;;;;;18.98;7.05;;;;;;;;;;5057711;28;20044;-81
2022/01/01 10:38:28;;;;;;;21.27;10.02;;;;;;;;;;5054001;28;20347;-80
2022/01/01 10:41:04;;;;;;;11.43;5.97;;;11.00;99.90;;;;;;5055565;28;20079;-81
2022/01/01 10:43:38;;;;;;;12.30;5.65;;;;;;;;;;5057297;28;20101;-81
2022/01/01 10:46:05;;;;;;;14.63;7.13;;;;;;;;;;5059058;28;20037;-81
2022/01/01 10:51:04;;;;;;;13.15;6.55;;;;;;;;;;5059526;28;20049;-80
2022/01/01 10:53:30;;;;;;;16.23;6.28;;;;;;;;;;5057586;28;20048;-81
2022/01/01 10:55:58;;;;;;;10.05;5.30;;;;;;;;;;5037940;28;20044;-81
2022/01/01 10:58:32;;;;;;;9.40;5.22;;;;;;;;;;5038554;28;20124;-81
2022/01/01 11:01:06;;;;;;;14.93;7.07;;;11.30;99.90;;;;;;5038679;28;20037;-81
2022/01/01 11:03:37;;;;;;;15.23;6.95;;;11.40;99.90;;;;;;5052373;28;20044;-81
2022/01/01 11:06:10;;;;;;;13.15;5.78;;;;;;;;;;5047480;28;20056;-81
2022/01/01 11:08:37;;;;;;;12.95;6.38;;;;;;;;;;5054868;28;20051;-81
2022/01/01 11:11:03;;;;;;;9.80;5.35;;;;;;;;;;5054847;28;20068;-81
2022/01/01 11:13:33;;;;;;;14.60;5.97;;;;;;;;;;5055071;28;20037;-81
2022/01/01 11:15:59;;;;;;;10.95;4.55;;;;;;;;;;5037225;28;20675;-80
2022/01/01 11:18:26;;;;;;;15.75;6.32;;;;;;;;;;5056077;28;20044;-81
2022/01/01 11:20:52;;;;;;;9.88;5.88;;;;;;;;;;5041438;28;20036;-81
2022/01/01 11:23:19;;;;;;;15.80;7.32;;;;;;;;;;5058112;28;20074;-81
2022/01/01 11:25:45;;;;;;;9.93;5.00;;;;;;;;;;5049644;28;20502;-81
2022/01/01 11:28:14;;;;;;;8.23;5.25;;;11.60;99.90;;;;;;5038954;28;20082;-81
2022/01/01 11:30:50;;;;;;;12.05;5.22;;;11.70;99.90;;;;;;5057578;28;20130;-80
2022/01/01 11:33:17;;;;;;;12.40;5.40;;;;;;;;;;5054631;28;20060;-81
2022/01/01 11:35:56;;;;;;;11.77;5.53;;;;;;;;;;5036187;28;20392;-81
2022/01/01 11:38:23;;;;;;;12.07;5.60;;;;;;;;;;5038695;28;20079;-81
2022/01/01 11:41:19;;;;;;;16.52;6.07;;;;;;;;;;5032013;28;20122;-81
2022/01/01 11:43:51;;;;;;;14.27;6.28;;;;;;;;;;5044589;28;20247;-81
2022/01/01 11:46:22;;;;;;;12.35;6.45;;;11.70;99.90;;;;;;5039025;28;20045;-81
2022/01/01 11:48:50;;;;;;;10.45;5.05;;;;;;;;;;5053679;28;20051;-81
2022/01/01 11:51:21;;;;;;;13.10;5.95;;;;;;;;;;5054160;28;20041;-81
2022/01/01 11:54:06;;;;;;;13.45;4.63;;;;;;;;;;5054976;28;20076;-80
2022/01/01 11:56:50;;;;;;;13.32;5.35;;;;;;;;;;5041870;28;20044;-81
2022/01/01 11:59:21;;;;;;;16.07;6.03;;;;;;;;;;5053294;28;20588;-80
2022/01/01 12:01:47;;;;;;;11.65;6.43;;;;;;;;;;5051514;28;20390;-81
2022/01/01 12:04:31;;;;;;;21.25;7.10;;;;;;;;;;5057738;28;20123;-81
2022/01/01 12:07:11;;;;;;;12.30;5.60;;;;;;;;;;5053554;28;20082;-80
2022/01/01 12:09:53;;;;;;;13.43;6.25;;;;;;;;;;5055613;28;20376;-81
2022/01/01 12:12:35;;;;;;;11.70;5.40;;;;;;;;;;5057342;28;20652;-80
2022/01/01 12:15:01;;;;;;;13.25;6.18;;;;;;;;;;5052405;28;20087;-81
2022/01/01 12:17:28;;;;;;;11.13;5.68;;;;;;;;;;5051681;28;20049;-80
2022/01/01 12:19:57;;;;;;;11.45;5.78;;;;;;;;;;5055517;28;20537;-80
2022/01/01 12:22:27;;;;;;;13.00;6.20;;;;;;;;;;5037930;28;20052;-81
2022/01/01 12:24:53;;;;;;;13.10;7.18;;;;;;;;;;5046356;28;20773;-81
2022/01/01 12:27:19;;;;;;;18.65;6.95;;;;;;;;;;5055473;28;20507;-81
2022/01/01 12:29:46;;;;;;;15.57;6.30;;;;;;;;;;5057751;28;20044;-81
2022/01/01 12:32:12;;;;;;;17.80;7.63;;;;;;;;;;5056552;28;20033;-81
2022/01/01 12:34:39;;;;;;;16.20;7.15;;;;;;;;;;5053186;28;20041;-81
2022/01/01 12:37:09;;;;;;;14.02;8.35;;;;;;;;;;5038880;28;20408;-81
2022/01/01 12:40:02;;;;;;;18.17;6.93;;;11.70;99.90;;;;;;5051377;28;20098;-81
2022/01/01 12:42:33;;;;;;;17.88;8.35;;;;;;;;;;5052137;28;20128;-81
2022/01/01 12:45:04;;;;;;;12.45;7.40;;;;;;;;;;5038439;28;20028;-81
2022/01/01 12:47:31;;;;;;;11.65;6.13;;;;;;;;;;5038742;28;20083;-81
2022/01/01 12:50:02;;;;;;;14.13;6.80;;;11.70;99.90;;;;;;5053313;28;20127;-81
2022/01/01 12:52:29;;;;;;;14.27;7.50;;;;;;;;;;5053191;28;20272;-81
2022/01/01 12:54:59;;;;;;;15.45;9.20;;;;;;;;;;5060105;28;20041;-81
2022/01/01 12:57:25;;;;;;;16.08;8.15;;;;;;;;;;5059674;28;20123;-81
2022/01/01 12:59:53;;;;;;;14.27;7.57;;;;;;;;;;5060991;28;20098;-81
2022/01/01 13:02:19;;;;;;;17.13;7.95;;;;;;;;;;5049694;28;20565;-80
2022/01/01 13:04:45;;;;;;;17.25;8.38;;;;;;;;;;5060292;28;20105;-80
2022/01/01 13:07:12;;;;;;;14.57;8.00;;;;;;;;;;5051468;28;20494;-81
2022/01/01 13:09:38;;;;;;;13.20;6.95;;;;;;;;;;5060796;28;20040;-81
2022/01/01 13:12:06;;;;;;;12.32;7.60;;;;;;;;;;5059467;28;22245;-80
2022/01/01 13:14:33;;;;;;;14.70;9.18;;;;;;;;;;5061044;28;20041;-80
2022/01/01 13:17:01;;;;;;;17.20;8.88;;;;;;;;;;5054677;28;20079;-80
2022/01/01 13:19:28;;;;;;;15.82;7.18;;;;;;;;;;5060771;28;20412;-81
2022/01/01 13:21:55;;;;;;;15.05;8.63;;;;;;;;;;5048148;28;20486;-80
2022/01/01 13:24:30;;;;;;;13.30;6.72;;;;;;;;;;5051248;28;20562;-81
2022/01/01 13:26:57;;;;;;;16.27;9.00;;;;;;;;;;5058033;28;20110;-81
2022/01/01 13:29:24;;;;;;;15.27;7.60;;;;;;;;;;5041169;28;20776;-81
2022/01/01 13:32:00;;;;;;;18.10;8.25;;;;;;;;;;5055816;28;20135;-79
2022/01/01 13:34:27;;;;;;;15.63;8.23;;;12.30;99.90;;;;;;5055121;28;20124;-80
2022/01/01 13:37:02;;;;;;;12.43;6.97;;;;;;;;;;5058022;28;20088;-80
2022/01/01 13:39:30;;;;;;;15.75;7.57;;;;;;;;;;5059733;28;20051;-80
2022/01/01 13:41:58;;;;;;;13.40;7.50;;;;;;;;;;5058979;28;20069;-81
2022/01/01 13:44:32;;;;;;;14.88;8.60;;;;;;;;;;5060483;28;20050;-81
2022/01/01 13:47:09;;;;;;;15.63;8.10;;;;;;;;;;5061512;28;20530;-81
2022/01/01 13:49:45;;;;;;;12.50;6.60;;;;;;;;;;5036914;28;20041;-81
2022/01/01 13:52:19;;;;;;;13.70;7.30;;;;;;;;;;5052950;28;20129;-80
2022/01/01 13:54:45;;;;;;;15.15;8.02;;;;;;;;;;5035760;28;20044;-81
2022/01/01 13:57:11;;;;;;;15.05;7.85;;;;;;;;;;5059675;28;20218;-80
2022/01/01 13:59:39;;;;;;;17.15;9.00;;;;;;;;;;5059890;28;20040;-80
2022/01/01 14:02:06;;;;;;;17.73;8.85;;;;;;;;;;5043640;28;20446;-81
2022/01/01 14:04:35;;;;;;;18.02;9.50;;;;;;;;;;5054781;28;20606;-80
2022/01/01 14:07:03;;;;;;;13.35;6.75;;;;;;;;;;5056604;28;20047;-81
2022/01/01 14:09:29;;;;;;;13.38;8.02;;;;;;;;;;5051682;28;20036;-81
2022/01/01 14:11:56;;;;;;;16.25;9.27;;;11.90;99.90;;;;;;5056117;28;20515;-80
2022/01/01 14:14:28;;;;;;;14.02;7.50;;;;;;;;;;5042370;28;20044;-80
2022/01/01 14:16:54;;;;;;;13.60;8.90;;;;;;;;;;5059243;28;20044;-80
2022/01/01 14:19:21;;;;;;;11.48;7.03;;;;;;;;;;5059320;28;20110;-80
2022/01/01 14:21:52;;;;;;;18.00;8.80;;;;;;;;;;5057506;28;20041;-82
2022/01/01 14:24:21;;;;;;;19.75;9.30;;;12.00;99.90;;;;;;5057511;28;20167;-80
2022/01/01 14:26:48;;;;;;;13.73;7.68;;;;;;;;;;5054601;28;20028;-80